Decoded Metar for KSUE (STURGEON BAY in WI, USA) (IATA:SUE) | Meteo·Mobile Aviation Weather
aviador You're here:

KSUE Decoded Metar

STURGEON BAY in WI, USA
Report Time2018-08-22 04:56:00
UTC Time2018-08-22 05:38:00
Flight Rules vfr VFR
Wind330° at 13 Gusting to 18 kt
W.Decomp.*RWY 02: 8.9 kt HW 9.5 kt LCW
RWY 28: 7.8 kt HW 10.4 kt RCW
W.Rank330° ranks 14
Current wind is above 330° avg. (9.3)
Visibility9999 m
Phenomena:N/A
Clouds:N/A
Expected CloudBase > 2,000 ft AGL from Temp-Dew spread
CeilingNone
Temp16°C (ISA +2)
Dew Point11°C (72% RH)
AAT11.6°C
QNH1017 hPa
Density Alt1,056 ft
Elevation725 ft
Report Wrong Elevation
Raw Report
KSUE 220456Z AUTO 33013G18KT 10SM CLR 16/11 A3004 RMK AO2 SLP189
T01610111=

Extra information for KSUE:More info

Metar Taf Metar & Taf Last 4 Metars F.Rules Stats Wind Profile Meteogram Temp Stats Airport Information Weather charts Add Link Nearby VenuesMetar ALERT Operation Metar Decoded Social comments

AIRNAV info for KSUE